sensor_id;sensor_type;location;lat;lon;timestamp;P1;durP1;ratioP1;P2;durP2;ratioP2
69937;SDS011;57248;47.320;15.998;2024-02-16T00:00:06;2.13;;;0.63;;
69937;SDS011;57248;47.320;15.998;2024-02-16T00:02:45;3.42;;;0.73;;
69937;SDS011;57248;47.320;15.998;2024-02-16T00:05:18;2.60;;;0.77;;
69937;SDS011;57248;47.320;15.998;2024-02-16T00:07:50;2.20;;;0.40;;
69937;SDS011;57248;47.320;15.998;2024-02-16T00:10:22;1.90;;;0.40;;
69937;SDS011;57248;47.320;15.998;2024-02-16T00:12:54;3.28;;;0.85;;
69937;SDS011;57248;47.320;15.998;2024-02-16T00:15:26;5.25;;;1.10;;
69937;SDS011;57248;47.320;15.998;2024-02-16T00:17:58;3.50;;;1.17;;
69937;SDS011;57248;47.320;15.998;2024-02-16T00:20:30;4.70;;;0.60;;
69937;SDS011;57248;47.320;15.998;2024-02-16T00:23:03;3.55;;;0.57;;
69937;SDS011;57248;47.320;15.998;2024-02-16T00:25:35;2.75;;;0.35;;
69937;SDS011;57248;47.320;15.998;2024-02-16T00:28:07;3.40;;;0.88;;
69937;SDS011;57248;47.320;15.998;2024-02-16T00:30:33;5.27;;;1.00;;
69937;SDS011;57248;47.320;15.998;2024-02-16T00:33:06;4.18;;;0.80;;
69937;SDS011;57248;47.320;15.998;2024-02-16T00:35:39;1.10;;;0.25;;
69937;SDS011;57248;47.320;15.998;2024-02-16T00:38:11;1.75;;;0.52;;
69937;SDS011;57248;47.320;15.998;2024-02-16T00:40:36;1.63;;;0.40;;
69937;SDS011;57248;47.320;15.998;2024-02-16T00:43:15;4.40;;;1.05;;
69937;SDS011;57248;47.320;15.998;2024-02-16T00:45:42;4.43;;;0.32;;
69937;SDS011;57248;47.320;15.998;2024-02-16T00:48:16;3.10;;;0.80;;
69937;SDS011;57248;47.320;15.998;2024-02-16T00:50:48;1.27;;;0.30;;
69937;SDS011;57248;47.320;15.998;2024-02-16T00:53:20;2.75;;;0.68;;
69937;SDS011;57248;47.320;15.998;2024-02-16T00:55:52;1.55;;;0.40;;
69937;SDS011;57248;47.320;15.998;2024-02-16T00:58:17;3.47;;;0.50;;
69937;SDS011;57248;47.320;15.998;2024-02-16T01:00:51;3.17;;;0.75;;
69937;SDS011;57248;47.320;15.998;2024-02-16T01:03:23;2.22;;;0.77;;
69937;SDS011;57248;47.320;15.998;2024-02-16T01:05:55;3.20;;;0.60;;
69937;SDS011;57248;47.320;15.998;2024-02-16T01:08:27;2.40;;;0.55;;
69937;SDS011;57248;47.320;15.998;2024-02-16T01:10:52;1.80;;;0.33;;
69937;SDS011;57248;47.320;15.998;2024-02-16T01:13:25;0.95;;;0.32;;
69937;SDS011;57248;47.320;15.998;2024-02-16T01:15:50;2.50;;;0.80;;
69937;SDS011;57248;47.320;15.998;2024-02-16T01:18:23;1.02;;;0.20;;
69937;SDS011;57248;47.320;15.998;2024-02-16T01:20:57;1.23;;;0.50;;
69937;SDS011;57248;47.320;15.998;2024-02-16T01:23:29;3.70;;;0.73;;
69937;SDS011;57248;47.320;15.998;2024-02-16T01:26:02;4.10;;;0.73;;
69937;SDS011;57248;47.320;15.998;2024-02-16T01:28:41;2.95;;;0.63;;
69937;SDS011;57248;47.320;15.998;2024-02-16T01:31:21;4.90;;;1.17;;
69937;SDS011;57248;47.320;15.998;2024-02-16T01:33:53;3.95;;;0.60;;
69937;SDS011;57248;47.320;15.998;2024-02-16T01:36:25;2.03;;;0.47;;
69937;SDS011;57248;47.320;15.998;2024-02-16T01:38:57;1.98;;;0.43;;
69937;SDS011;57248;47.320;15.998;2024-02-16T01:41:29;2.60;;;0.47;;
69937;SDS011;57248;47.320;15.998;2024-02-16T01:44:01;3.15;;;0.77;;
69937;SDS011;57248;47.320;15.998;2024-02-16T01:46:33;2.47;;;0.68;;
69937;SDS011;57248;47.320;15.998;2024-02-16T01:49:06;1.70;;;0.27;;
69937;SDS011;57248;47.320;15.998;2024-02-16T01:51:33;2.05;;;0.52;;
69937;SDS011;57248;47.320;15.998;2024-02-16T01:54:07;1.45;;;0.45;;
69937;SDS011;57248;47.320;15.998;2024-02-16T01:56:40;1.25;;;0.43;;
69937;SDS011;57248;47.320;15.998;2024-02-16T01:59:12;4.10;;;0.90;;
69937;SDS011;57248;47.320;15.998;2024-02-16T02:01:44;1.97;;;0.60;;
69937;SDS011;57248;47.320;15.998;2024-02-16T02:04:16;2.60;;;0.40;;
69937;SDS011;57248;47.320;15.998;2024-02-16T02:06:48;0.77;;;0.30;;
69937;SDS011;57248;47.320;15.998;2024-02-16T02:09:20;2.05;;;0.68;;
69937;SDS011;57248;47.320;15.998;2024-02-16T02:11:52;2.58;;;0.52;;
69937;SDS011;57248;47.320;15.998;2024-02-16T02:14:25;2.13;;;0.57;;
69937;SDS011;57248;47.320;15.998;2024-02-16T02:16:58;4.00;;;0.50;;
69937;SDS011;57248;47.320;15.998;2024-02-16T02:19:30;1.00;;;0.32;;
69937;SDS011;57248;47.320;15.998;2024-02-16T02:22:02;0.98;;;0.35;;
69937;SDS011;57248;47.320;15.998;2024-02-16T02:24:27;2.17;;;0.53;;
69937;SDS011;57248;47.320;15.998;2024-02-16T02:26:59;2.13;;;0.43;;
69937;SDS011;57248;47.320;15.998;2024-02-16T02:29:31;1.95;;;0.50;;
69937;SDS011;57248;47.320;15.998;2024-02-16T02:32:10;0.90;;;0.30;;
69937;SDS011;57248;47.320;15.998;2024-02-16T02:34:42;1.85;;;0.55;;
69937;SDS011;57248;47.320;15.998;2024-02-16T02:37:15;1.30;;;0.47;;
69937;SDS011;57248;47.320;15.998;2024-02-16T02:39:47;2.53;;;0.40;;
69937;SDS011;57248;47.320;15.998;2024-02-16T02:42:19;2.35;;;0.38;;
69937;SDS011;57248;47.320;15.998;2024-02-16T02:44:51;2.63;;;0.70;;
69937;SDS011;57248;47.320;15.998;2024-02-16T02:47:23;2.85;;;0.75;;
69937;SDS011;57248;47.320;15.998;2024-02-16T02:49:55;1.88;;;0.35;;
69937;SDS011;57248;47.320;15.998;2024-02-16T02:52:27;1.55;;;0.43;;
69937;SDS011;57248;47.320;15.998;2024-02-16T02:54:59;2.15;;;0.52;;
69937;SDS011;57248;47.320;15.998;2024-02-16T02:57:31;1.33;;;0.53;;
69937;SDS011;57248;47.320;15.998;2024-02-16T03:00:06;4.25;;;0.65;;
69937;SDS011;57248;47.320;15.998;2024-02-16T03:02:42;0.82;;;0.20;;
69937;SDS011;57248;47.320;15.998;2024-02-16T03:05:15;4.60;;;0.93;;
69937;SDS011;57248;47.320;15.998;2024-02-16T03:07:47;0.88;;;0.30;;
69937;SDS011;57248;47.320;15.998;2024-02-16T03:10:19;1.53;;;0.37;;
69937;SDS011;57248;47.320;15.998;2024-02-16T03:12:54;1.98;;;0.40;;
69937;SDS011;57248;47.320;15.998;2024-02-16T03:15:20;0.82;;;0.17;;
69937;SDS011;57248;47.320;15.998;2024-02-16T03:17:52;0.93;;;0.25;;
69937;SDS011;57248;47.320;15.998;2024-02-16T03:20:24;1.92;;;0.40;;
69937;SDS011;57248;47.320;15.998;2024-02-16T03:22:57;2.27;;;0.20;;
69937;SDS011;57248;47.320;15.998;2024-02-16T03:25:29;2.53;;;0.60;;
69937;SDS011;57248;47.320;15.998;2024-02-16T03:27:54;2.38;;;0.73;;
69937;SDS011;57248;47.320;15.998;2024-02-16T03:30:27;1.40;;;0.20;;
69937;SDS011;57248;47.320;15.998;2024-02-16T03:33:06;2.67;;;0.80;;
69937;SDS011;57248;47.320;15.998;2024-02-16T03:35:31;2.13;;;0.77;;
69937;SDS011;57248;47.320;15.998;2024-02-16T03:38:04;2.80;;;0.32;;
69937;SDS011;57248;47.320;15.998;2024-02-16T03:40:37;0.70;;;0.13;;
69937;SDS011;57248;47.320;15.998;2024-02-16T03:43:09;2.17;;;0.45;;
69937;SDS011;57248;47.320;15.998;2024-02-16T03:45:41;2.45;;;0.82;;
69937;SDS011;57248;47.320;15.998;2024-02-16T03:48:13;2.83;;;0.50;;
69937;SDS011;57248;47.320;15.998;2024-02-16T03:50:45;1.98;;;0.28;;
69937;SDS011;57248;47.320;15.998;2024-02-16T03:53:11;2.88;;;0.50;;
69937;SDS011;57248;47.320;15.998;2024-02-16T03:55:43;3.05;;;0.75;;
69937;SDS011;57248;47.320;15.998;2024-02-16T03:58:15;1.00;;;0.57;;
69937;SDS011;57248;47.320;15.998;2024-02-16T04:00:48;3.67;;;0.83;;
69937;SDS011;57248;47.320;15.998;2024-02-16T04:03:24;2.70;;;1.02;;
69937;SDS011;57248;47.320;15.998;2024-02-16T04:05:50;3.15;;;0.73;;
69937;SDS011;57248;47.320;15.998;2024-02-16T04:08:24;2.30;;;0.50;;
69937;SDS011;57248;47.320;15.998;2024-02-16T04:10:56;1.55;;;0.65;;
69937;SDS011;57248;47.320;15.998;2024-02-16T04:13:28;4.53;;;0.57;;
69937;SDS011;57248;47.320;15.998;2024-02-16T04:16:00;1.63;;;0.30;;
69937;SDS011;57248;47.320;15.998;2024-02-16T04:18:39;1.65;;;0.65;;
69937;SDS011;57248;47.320;15.998;2024-02-16T04:21:11;2.53;;;0.47;;
69937;SDS011;57248;47.320;15.998;2024-02-16T04:23:43;1.30;;;0.30;;
69937;SDS011;57248;47.320;15.998;2024-02-16T04:26:16;2.67;;;0.60;;
69937;SDS011;57248;47.320;15.998;2024-02-16T04:28:48;3.67;;;0.57;;
69937;SDS011;57248;47.320;15.998;2024-02-16T04:31:34;1.48;;;0.35;;
69937;SDS011;57248;47.320;15.998;2024-02-16T04:34:06;4.88;;;0.52;;
69937;SDS011;57248;47.320;15.998;2024-02-16T04:36:31;0.67;;;0.10;;
69937;SDS011;57248;47.320;15.998;2024-02-16T04:39:04;1.35;;;0.22;;
69937;SDS011;57248;47.320;15.998;2024-02-16T04:41:36;2.17;;;0.38;;
69937;SDS011;57248;47.320;15.998;2024-02-16T04:44:08;3.40;;;0.45;;
69937;SDS011;57248;47.320;15.998;2024-02-16T04:46:40;2.43;;;0.70;;
69937;SDS011;57248;47.320;15.998;2024-02-16T04:49:13;2.58;;;0.40;;
69937;SDS011;57248;47.320;15.998;2024-02-16T04:51:46;1.70;;;0.32;;
69937;SDS011;57248;47.320;15.998;2024-02-16T04:54:19;0.93;;;0.22;;
69937;SDS011;57248;47.320;15.998;2024-02-16T04:56:44;0.97;;;0.20;;
69937;SDS011;57248;47.320;15.998;2024-02-16T04:59:17;1.60;;;0.38;;
69937;SDS011;57248;47.320;15.998;2024-02-16T05:01:49;2.17;;;0.45;;
69937;SDS011;57248;47.320;15.998;2024-02-16T05:04:21;1.25;;;0.43;;
69937;SDS011;57248;47.320;15.998;2024-02-16T05:06:53;2.70;;;0.97;;
69937;SDS011;57248;47.320;15.998;2024-02-16T05:09:31;3.85;;;0.63;;
69937;SDS011;57248;47.320;15.998;2024-02-16T05:12:04;3.72;;;0.68;;
69937;SDS011;57248;47.320;15.998;2024-02-16T05:14:29;6.47;;;1.30;;
69937;SDS011;57248;47.320;15.998;2024-02-16T05:17:02;1.77;;;0.47;;
69937;SDS011;57248;47.320;15.998;2024-02-16T05:19:31;2.92;;;0.55;;
69937;SDS011;57248;47.320;15.998;2024-02-16T05:22:16;3.13;;;0.50;;
69937;SDS011;57248;47.320;15.998;2024-02-16T05:24:53;1.70;;;0.40;;
69937;SDS011;57248;47.320;15.998;2024-02-16T05:27:25;1.57;;;0.27;;
69937;SDS011;57248;47.320;15.998;2024-02-16T05:29:58;1.60;;;0.68;;
69937;SDS011;57248;47.320;15.998;2024-02-16T05:32:37;1.20;;;0.22;;
69937;SDS011;57248;47.320;15.998;2024-02-16T05:35:09;2.80;;;0.82;;
69937;SDS011;57248;47.320;15.998;2024-02-16T05:37:46;1.23;;;0.30;;
69937;SDS011;57248;47.320;15.998;2024-02-16T05:40:27;2.47;;;0.73;;
69937;SDS011;57248;47.320;15.998;2024-02-16T05:43:01;4.10;;;1.00;;
69937;SDS011;57248;47.320;15.998;2024-02-16T05:45:34;0.73;;;0.30;;
69937;SDS011;57248;47.320;15.998;2024-02-16T05:48:07;1.85;;;0.55;;
69937;SDS011;57248;47.320;15.998;2024-02-16T05:50:40;2.13;;;0.63;;
69937;SDS011;57248;47.320;15.998;2024-02-16T05:53:06;4.03;;;0.83;;
69937;SDS011;57248;47.320;15.998;2024-02-16T05:55:39;2.67;;;0.90;;
69937;SDS011;57248;47.320;15.998;2024-02-16T05:58:04;4.40;;;1.20;;
69937;SDS011;57248;47.320;15.998;2024-02-16T06:00:36;1.02;;;0.15;;
69937;SDS011;57248;47.320;15.998;2024-02-16T06:03:08;3.65;;;0.90;;
69937;SDS011;57248;47.320;15.998;2024-02-16T06:05:40;1.55;;;0.32;;
69937;SDS011;57248;47.320;15.998;2024-02-16T06:08:12;1.58;;;0.40;;
69937;SDS011;57248;47.320;15.998;2024-02-16T06:10:45;2.53;;;0.23;;
69937;SDS011;57248;47.320;15.998;2024-02-16T06:13:23;1.27;;;0.52;;
69937;SDS011;57248;47.320;15.998;2024-02-16T06:15:48;4.57;;;1.70;;
69937;SDS011;57248;47.320;15.998;2024-02-16T06:18:20;4.87;;;1.67;;
69937;SDS011;57248;47.320;15.998;2024-02-16T06:20:52;3.50;;;1.33;;
69937;SDS011;57248;47.320;15.998;2024-02-16T06:23:24;4.88;;;1.10;;
69937;SDS011;57248;47.320;15.998;2024-02-16T06:25:57;5.47;;;1.90;;
69937;SDS011;57248;47.320;15.998;2024-02-16T06:28:22;5.80;;;1.47;;
69937;SDS011;57248;47.320;15.998;2024-02-16T06:30:55;6.88;;;1.45;;
69937;SDS011;57248;47.320;15.998;2024-02-16T06:33:28;6.05;;;1.52;;
69937;SDS011;57248;47.320;15.998;2024-02-16T06:36:00;3.10;;;1.13;;
69937;SDS011;57248;47.320;15.998;2024-02-16T06:38:32;3.83;;;1.20;;
69937;SDS011;57248;47.320;15.998;2024-02-16T06:41:04;2.70;;;1.23;;
69937;SDS011;57248;47.320;15.998;2024-02-16T06:43:36;2.83;;;1.15;;
69937;SDS011;57248;47.320;15.998;2024-02-16T06:46:08;6.68;;;1.67;;
69937;SDS011;57248;47.320;15.998;2024-02-16T06:48:40;4.65;;;0.95;;
69937;SDS011;57248;47.320;15.998;2024-02-16T06:51:13;5.43;;;2.23;;
69937;SDS011;57248;47.320;15.998;2024-02-16T06:53:38;7.15;;;1.40;;
69937;SDS011;57248;47.320;15.998;2024-02-16T06:56:11;7.30;;;1.88;;
69937;SDS011;57248;47.320;15.998;2024-02-16T06:58:43;12.63;;;2.70;;
69937;SDS011;57248;47.320;15.998;2024-02-16T07:01:15;3.83;;;1.63;;
69937;SDS011;57248;47.320;15.998;2024-02-16T07:03:48;4.50;;;1.83;;
69937;SDS011;57248;47.320;15.998;2024-02-16T07:06:20;4.10;;;1.52;;
69937;SDS011;57248;47.320;15.998;2024-02-16T07:08:53;6.97;;;2.00;;
69937;SDS011;57248;47.320;15.998;2024-02-16T07:11:26;4.55;;;1.77;;
69937;SDS011;57248;47.320;15.998;2024-02-16T07:13:58;5.17;;;1.47;;
69937;SDS011;57248;47.320;15.998;2024-02-16T07:16:33;8.70;;;2.28;;
69937;SDS011;57248;47.320;15.998;2024-02-16T07:19:06;7.45;;;2.65;;
69937;SDS011;57248;47.320;15.998;2024-02-16T07:21:38;8.73;;;2.67;;
69937;SDS011;57248;47.320;15.998;2024-02-16T07:24:10;7.95;;;2.42;;
69937;SDS011;57248;47.320;15.998;2024-02-16T07:26:43;7.00;;;3.13;;
69937;SDS011;57248;47.320;15.998;2024-02-16T07:29:16;7.15;;;2.00;;
69937;SDS011;57248;47.320;15.998;2024-02-16T07:31:48;9.85;;;3.33;;
69937;SDS011;57248;47.320;15.998;2024-02-16T07:34:28;10.98;;;3.65;;
69937;SDS011;57248;47.320;15.998;2024-02-16T07:37:00;4.75;;;1.92;;
69937;SDS011;57248;47.320;15.998;2024-02-16T07:39:35;11.10;;;2.50;;
69937;SDS011;57248;47.320;15.998;2024-02-16T07:42:07;11.00;;;2.97;;
69937;SDS011;57248;47.320;15.998;2024-02-16T07:44:37;6.60;;;2.47;;
69937;SDS011;57248;47.320;15.998;2024-02-16T07:47:10;6.22;;;1.95;;
69937;SDS011;57248;47.320;15.998;2024-02-16T07:49:44;6.47;;;3.17;;
69937;SDS011;57248;47.320;15.998;2024-02-16T07:52:16;8.00;;;3.53;;
69937;SDS011;57248;47.320;15.998;2024-02-16T07:54:49;9.73;;;3.70;;
69937;SDS011;57248;47.320;15.998;2024-02-16T07:57:24;7.78;;;3.10;;
69937;SDS011;57248;47.320;15.998;2024-02-16T07:59:56;9.55;;;3.47;;
69937;SDS011;57248;47.320;15.998;2024-02-16T08:02:22;11.40;;;3.30;;
69937;SDS011;57248;47.320;15.998;2024-02-16T08:04:54;11.45;;;3.53;;
69937;SDS011;57248;47.320;15.998;2024-02-16T08:07:19;13.10;;;3.45;;
69937;SDS011;57248;47.320;15.998;2024-02-16T08:09:52;7.07;;;2.93;;
69937;SDS011;57248;47.320;15.998;2024-02-16T08:12:24;6.60;;;2.17;;
69937;SDS011;57248;47.320;15.998;2024-02-16T08:15:06;6.47;;;2.92;;
69937;SDS011;57248;47.320;15.998;2024-02-16T08:17:42;6.18;;;2.85;;
69937;SDS011;57248;47.320;15.998;2024-02-16T08:20:22;11.98;;;3.00;;
69937;SDS011;57248;47.320;15.998;2024-02-16T08:22:55;6.73;;;3.00;;
69937;SDS011;57248;47.320;15.998;2024-02-16T08:25:28;7.90;;;2.50;;
69937;SDS011;57248;47.320;15.998;2024-02-16T08:28:02;6.15;;;2.88;;
69937;SDS011;57248;47.320;15.998;2024-02-16T08:30:41;6.00;;;2.78;;
69937;SDS011;57248;47.320;15.998;2024-02-16T08:33:15;9.20;;;3.17;;
69937;SDS011;57248;47.320;15.998;2024-02-16T08:35:47;9.90;;;3.03;;
69937;SDS011;57248;47.320;15.998;2024-02-16T08:38:19;6.13;;;2.80;;
69937;SDS011;57248;47.320;15.998;2024-02-16T08:40:51;9.13;;;3.72;;
69937;SDS011;57248;47.320;15.998;2024-02-16T08:43:24;6.90;;;3.15;;
69937;SDS011;57248;47.320;15.998;2024-02-16T08:45:56;7.82;;;3.88;;
69937;SDS011;57248;47.320;15.998;2024-02-16T08:48:22;9.33;;;4.13;;
69937;SDS011;57248;47.320;15.998;2024-02-16T08:50:56;12.98;;;4.97;;
69937;SDS011;57248;47.320;15.998;2024-02-16T08:53:28;9.38;;;4.55;;
69937;SDS011;57248;47.320;15.998;2024-02-16T08:56:01;8.63;;;4.70;;
69937;SDS011;57248;47.320;15.998;2024-02-16T08:58:33;9.82;;;4.47;;
69937;SDS011;57248;47.320;15.998;2024-02-16T09:01:05;10.52;;;4.75;;
69937;SDS011;57248;47.320;15.998;2024-02-16T09:03:37;9.90;;;4.80;;
69937;SDS011;57248;47.320;15.998;2024-02-16T09:06:05;12.00;;;6.00;;
69937;SDS011;57248;47.320;15.998;2024-02-16T09:08:37;12.93;;;6.83;;
69937;SDS011;57248;47.320;15.998;2024-02-16T09:11:09;15.13;;;6.65;;
69937;SDS011;57248;47.320;15.998;2024-02-16T09:13:41;10.75;;;5.53;;
69937;SDS011;57248;47.320;15.998;2024-02-16T09:16:13;12.30;;;6.07;;
69937;SDS011;57248;47.320;15.998;2024-02-16T09:18:39;12.73;;;6.03;;
69937;SDS011;57248;47.320;15.998;2024-02-16T09:21:11;10.40;;;5.60;;
69937;SDS011;57248;47.320;15.998;2024-02-16T09:23:43;12.65;;;5.82;;
69937;SDS011;57248;47.320;15.998;2024-02-16T09:26:15;11.43;;;6.55;;
69937;SDS011;57248;47.320;15.998;2024-02-16T09:28:48;11.00;;;5.93;;
69937;SDS011;57248;47.320;15.998;2024-02-16T09:31:22;11.27;;;5.23;;
69937;SDS011;57248;47.320;15.998;2024-02-16T09:34:01;9.85;;;5.40;;
69937;SDS011;57248;47.320;15.998;2024-02-16T09:36:35;12.20;;;5.45;;
69937;SDS011;57248;47.320;15.998;2024-02-16T09:39:10;10.88;;;5.80;;
69937;SDS011;57248;47.320;15.998;2024-02-16T09:41:42;10.30;;;5.63;;
69937;SDS011;57248;47.320;15.998;2024-02-16T09:44:17;16.17;;;6.40;;
69937;SDS011;57248;47.320;15.998;2024-02-16T09:46:51;13.68;;;6.22;;
69937;SDS011;57248;47.320;15.998;2024-02-16T09:49:25;12.50;;;6.15;;
69937;SDS011;57248;47.320;15.998;2024-02-16T09:51:58;12.68;;;6.85;;
69937;SDS011;57248;47.320;15.998;2024-02-16T09:54:33;16.05;;;7.30;;
69937;SDS011;57248;47.320;15.998;2024-02-16T09:57:10;15.93;;;6.60;;
69937;SDS011;57248;47.320;15.998;2024-02-16T09:59:42;10.93;;;5.32;;
69937;SDS011;57248;47.320;15.998;2024-02-16T10:02:07;11.37;;;4.70;;
69937;SDS011;57248;47.320;15.998;2024-02-16T10:04:41;8.13;;;4.40;;
69937;SDS011;57248;47.320;15.998;2024-02-16T10:07:13;7.90;;;4.22;;
69937;SDS011;57248;47.320;15.998;2024-02-16T10:09:45;8.55;;;4.47;;
69937;SDS011;57248;47.320;15.998;2024-02-16T10:12:20;8.25;;;3.60;;
69937;SDS011;57248;47.320;15.998;2024-02-16T10:14:53;6.17;;;3.23;;
69937;SDS011;57248;47.320;15.998;2024-02-16T10:17:26;6.72;;;2.83;;
69937;SDS011;57248;47.320;15.998;2024-02-16T10:19:58;6.18;;;2.80;;
69937;SDS011;57248;47.320;15.998;2024-02-16T10:22:31;7.45;;;2.88;;
69937;SDS011;57248;47.320;15.998;2024-02-16T10:25:07;5.53;;;2.53;;
69937;SDS011;57248;47.320;15.998;2024-02-16T10:27:45;5.78;;;2.30;;
69937;SDS011;57248;47.320;15.998;2024-02-16T10:30:19;5.82;;;2.80;;
69937;SDS011;57248;47.320;15.998;2024-02-16T10:33:01;7.63;;;3.03;;
69937;SDS011;57248;47.320;15.998;2024-02-16T10:35:34;6.45;;;3.22;;
69937;SDS011;57248;47.320;15.998;2024-02-16T10:38:01;6.33;;;2.83;;
69937;SDS011;57248;47.320;15.998;2024-02-16T10:40:39;5.97;;;2.78;;
69937;SDS011;57248;47.320;15.998;2024-02-16T10:43:13;6.50;;;3.17;;
69937;SDS011;57248;47.320;15.998;2024-02-16T10:45:47;6.00;;;3.00;;
69937;SDS011;57248;47.320;15.998;2024-02-16T10:48:24;7.72;;;2.75;;
69937;SDS011;57248;47.320;15.998;2024-02-16T10:50:50;7.40;;;3.33;;
69937;SDS011;57248;47.320;15.998;2024-02-16T10:53:25;6.75;;;3.20;;
69937;SDS011;57248;47.320;15.998;2024-02-16T10:55:56;7.30;;;3.30;;
69937;SDS011;57248;47.320;15.998;2024-02-16T10:58:31;6.63;;;3.30;;
69937;SDS011;57248;47.320;15.998;2024-02-16T11:01:09;6.78;;;2.80;;
69937;SDS011;57248;47.320;15.998;2024-02-16T11:03:44;6.70;;;3.40;;
69937;SDS011;57248;47.320;15.998;2024-02-16T11:06:17;5.65;;;2.60;;
69937;SDS011;57248;47.320;15.998;2024-02-16T11:08:49;5.38;;;2.58;;
69937;SDS011;57248;47.320;15.998;2024-02-16T11:11:22;7.57;;;3.50;;
69937;SDS011;57248;47.320;15.998;2024-02-16T11:13:55;8.27;;;3.70;;
69937;SDS011;57248;47.320;15.998;2024-02-16T11:16:31;7.85;;;3.10;;
69937;SDS011;57248;47.320;15.998;2024-02-16T11:19:03;5.30;;;2.75;;
69937;SDS011;57248;47.320;15.998;2024-02-16T11:21:55;10.05;;;3.55;;
69937;SDS011;57248;47.320;15.998;2024-02-16T11:24:30;6.07;;;3.10;;
69937;SDS011;57248;47.320;15.998;2024-02-16T11:27:01;5.78;;;2.50;;
69937;SDS011;57248;47.320;15.998;2024-02-16T11:29:34;6.65;;;2.90;;
69937;SDS011;57248;47.320;15.998;2024-02-16T11:32:14;6.40;;;2.83;;
69937;SDS011;57248;47.320;15.998;2024-02-16T11:34:46;5.07;;;2.53;;
69937;SDS011;57248;47.320;15.998;2024-02-16T11:37:19;5.87;;;2.60;;
69937;SDS011;57248;47.320;15.998;2024-02-16T11:39:57;7.20;;;2.45;;
69937;SDS011;57248;47.320;15.998;2024-02-16T11:42:29;5.13;;;2.40;;
69937;SDS011;57248;47.320;15.998;2024-02-16T11:44:55;5.13;;;2.00;;
69937;SDS011;57248;47.320;15.998;2024-02-16T11:47:27;4.90;;;2.17;;
69937;SDS011;57248;47.320;15.998;2024-02-16T11:50:06;5.38;;;2.10;;
69937;SDS011;57248;47.320;15.998;2024-02-16T11:52:47;6.03;;;1.80;;
69937;SDS011;57248;47.320;15.998;2024-02-16T11:55:19;4.43;;;2.20;;
69937;SDS011;57248;47.320;15.998;2024-02-16T11:57:51;5.63;;;2.40;;
69937;SDS011;57248;47.320;15.998;2024-02-16T12:00:23;4.43;;;1.98;;
69937;SDS011;57248;47.320;15.998;2024-02-16T12:02:59;5.50;;;2.30;;
69937;SDS011;57248;47.320;15.998;2024-02-16T12:05:33;4.07;;;2.10;;
69937;SDS011;57248;47.320;15.998;2024-02-16T12:08:06;4.97;;;2.58;;
69937;SDS011;57248;47.320;15.998;2024-02-16T12:10:38;5.97;;;2.23;;
69937;SDS011;57248;47.320;15.998;2024-02-16T12:13:10;5.53;;;2.35;;
69937;SDS011;57248;47.320;15.998;2024-02-16T12:15:47;3.92;;;1.88;;
69937;SDS011;57248;47.320;15.998;2024-02-16T12:18:21;4.90;;;2.20;;
69937;SDS011;57248;47.320;15.998;2024-02-16T12:20:57;4.93;;;1.98;;
69937;SDS011;57248;47.320;15.998;2024-02-16T12:23:30;3.70;;;1.87;;
69937;SDS011;57248;47.320;15.998;2024-02-16T12:25:58;6.38;;;2.38;;
69937;SDS011;57248;47.320;15.998;2024-02-16T12:28:30;3.95;;;2.28;;
69937;SDS011;57248;47.320;15.998;2024-02-16T12:31:04;4.43;;;2.30;;
69937;SDS011;57248;47.320;15.998;2024-02-16T12:33:43;4.05;;;2.08;;
69937;SDS011;57248;47.320;15.998;2024-02-16T12:36:10;3.50;;;1.90;;
69937;SDS011;57248;47.320;15.998;2024-02-16T12:38:42;4.13;;;1.60;;
69937;SDS011;57248;47.320;15.998;2024-02-16T12:41:14;5.43;;;1.88;;
69937;SDS011;57248;47.320;15.998;2024-02-16T12:43:48;3.63;;;1.65;;
69937;SDS011;57248;47.320;15.998;2024-02-16T12:46:20;3.97;;;1.13;;
69937;SDS011;57248;47.320;15.998;2024-02-16T12:48:53;3.23;;;1.50;;
69937;SDS011;57248;47.320;15.998;2024-02-16T12:51:27;4.22;;;1.63;;
69937;SDS011;57248;47.320;15.998;2024-02-16T12:53:59;5.20;;;2.00;;
69937;SDS011;57248;47.320;15.998;2024-02-16T12:56:33;3.00;;;1.60;;
69937;SDS011;57248;47.320;15.998;2024-02-16T12:59:05;3.65;;;1.60;;
69937;SDS011;57248;47.320;15.998;2024-02-16T13:01:39;4.03;;;1.70;;
69937;SDS011;57248;47.320;15.998;2024-02-16T13:04:14;3.60;;;1.70;;
69937;SDS011;57248;47.320;15.998;2024-02-16T13:06:52;3.97;;;1.50;;
69937;SDS011;57248;47.320;15.998;2024-02-16T13:09:24;4.38;;;1.58;;
69937;SDS011;57248;47.320;15.998;2024-02-16T13:11:50;3.93;;;1.57;;
69937;SDS011;57248;47.320;15.998;2024-02-16T13:14:26;4.60;;;1.60;;
69937;SDS011;57248;47.320;15.998;2024-02-16T13:16:59;3.90;;;1.67;;
69937;SDS011;57248;47.320;15.998;2024-02-16T13:19:32;3.38;;;1.45;;
69937;SDS011;57248;47.320;15.998;2024-02-16T13:22:08;4.83;;;1.70;;
69937;SDS011;57248;47.320;15.998;2024-02-16T13:24:40;3.30;;;1.35;;
69937;SDS011;57248;47.320;15.998;2024-02-16T13:27:08;3.30;;;1.40;;
69937;SDS011;57248;47.320;15.998;2024-02-16T13:29:40;3.78;;;1.55;;
69937;SDS011;57248;47.320;15.998;2024-02-16T13:32:19;3.53;;;1.40;;
69937;SDS011;57248;47.320;15.998;2024-02-16T13:34:51;3.90;;;1.50;;
69937;SDS011;57248;47.320;15.998;2024-02-16T13:37:32;3.70;;;1.70;;
69937;SDS011;57248;47.320;15.998;2024-02-16T13:40:04;3.72;;;1.30;;
69937;SDS011;57248;47.320;15.998;2024-02-16T13:42:39;4.20;;;1.80;;
69937;SDS011;57248;47.320;15.998;2024-02-16T13:45:13;4.50;;;1.63;;
69937;SDS011;57248;47.320;15.998;2024-02-16T13:47:45;3.50;;;1.37;;
69937;SDS011;57248;47.320;15.998;2024-02-16T13:50:17;3.78;;;1.70;;
69937;SDS011;57248;47.320;15.998;2024-02-16T13:52:49;5.45;;;2.28;;
69937;SDS011;57248;47.320;15.998;2024-02-16T13:55:21;3.90;;;1.52;;
69937;SDS011;57248;47.320;15.998;2024-02-16T13:57:54;4.32;;;1.27;;
69937;SDS011;57248;47.320;15.998;2024-02-16T14:00:26;4.03;;;1.30;;
69937;SDS011;57248;47.320;15.998;2024-02-16T14:02:58;3.08;;;1.02;;
69937;SDS011;57248;47.320;15.998;2024-02-16T14:05:30;4.13;;;1.30;;
69937;SDS011;57248;47.320;15.998;2024-02-16T14:08:03;4.03;;;1.30;;
69937;SDS011;57248;47.320;15.998;2024-02-16T14:10:30;4.45;;;1.60;;
69937;SDS011;57248;47.320;15.998;2024-02-16T14:13:03;3.27;;;1.50;;
69937;SDS011;57248;47.320;15.998;2024-02-16T14:15:35;4.53;;;1.45;;
69937;SDS011;57248;47.320;15.998;2024-02-16T14:18:08;2.55;;;0.80;;
69937;SDS011;57248;47.320;15.998;2024-02-16T14:20:40;5.68;;;1.42;;
69937;SDS011;57248;47.320;15.998;2024-02-16T14:23:13;4.40;;;1.42;;
69937;SDS011;57248;47.320;15.998;2024-02-16T14:25:45;7.83;;;2.00;;
69937;SDS011;57248;47.320;15.998;2024-02-16T14:28:20;24.25;;;7.65;;
69937;SDS011;57248;47.320;15.998;2024-02-16T14:30:59;5.20;;;1.70;;
69937;SDS011;57248;47.320;15.998;2024-02-16T14:33:38;10.63;;;3.47;;
69937;SDS011;57248;47.320;15.998;2024-02-16T14:36:10;4.53;;;1.63;;
69937;SDS011;57248;47.320;15.998;2024-02-16T14:38:36;8.40;;;2.60;;
69937;SDS011;57248;47.320;15.998;2024-02-16T14:41:08;6.13;;;1.55;;
69937;SDS011;57248;47.320;15.998;2024-02-16T14:43:41;5.45;;;1.98;;
69937;SDS011;57248;47.320;15.998;2024-02-16T14:46:15;24.98;;;10.25;;
69937;SDS011;57248;47.320;15.998;2024-02-16T14:48:47;6.82;;;2.60;;
69937;SDS011;57248;47.320;15.998;2024-02-16T14:51:20;21.80;;;7.93;;
69937;SDS011;57248;47.320;15.998;2024-02-16T14:53:52;46.40;;;18.05;;
69937;SDS011;57248;47.320;15.998;2024-02-16T14:56:26;16.92;;;5.50;;
69937;SDS011;57248;47.320;15.998;2024-02-16T14:58:59;51.03;;;19.50;;
69937;SDS011;57248;47.320;15.998;2024-02-16T15:01:25;21.40;;;9.63;;
69937;SDS011;57248;47.320;15.998;2024-02-16T15:03:59;6.32;;;2.45;;